Terminal Aerodrome Forecast
Issued by NWS

Home | Current Version | Previous Version | Text Only | Print | Product List | Glossary On
Versions: 1 2 3 4 5 6 7 8 9 10 11 12 13 14 15
000
FTUS42 TJSJ 201700
TAFIST
TAF
TIST 201732Z 2018/2118 09012KT P6SM FEW035
     FM202200 08009KT P6SM FEW030
     FM211300 09012KT P6SM SCT025=

USA.gov is the U.S. government's official web portal to all federal, state and local government web resources and services.